Terminal Aerodrome Forecast
Issued by NWS

Home | Current Version | Previous Version | Text Only | Print | Product List | Glossary On
Versions: 1 2 3 4 5 6 7 8 9 10 11 12 13 14 15 16 17 18 19 20 21 22 23 24
075
FTUS41 KILN 302331
TAFLUK
TAF
KLUK 302331Z 3100/3124 00000KT P6SM SCT250
      TEMPO 3109/3111 2SM BR
     FM311500 VRB03KT P6SM FEW060 SCT250
     FM311800 07005KT P6SM BKN060 BKN250
     FM312300 06004KT P6SM FEW060 BKN250=

USA.gov is the U.S. government's official web portal to all federal, state and local government web resources and services.